createdAt,value
2022-07-31T00:00:16.302Z,17.41
2022-07-31T00:01:18.461Z,17.39
2022-07-31T00:02:21.739Z,17.41
2022-07-31T00:03:23.906Z,17.40
2022-07-31T00:04:28.374Z,17.40
2022-07-31T00:05:31.238Z,17.40
2022-07-31T00:06:34.390Z,17.40
2022-07-31T00:07:36.729Z,17.39
2022-07-31T00:08:39.893Z,17.39
2022-07-31T00:09:49.260Z,17.38
2022-07-31T00:10:58.074Z,17.37
2022-07-31T00:12:00.328Z,17.37
2022-07-31T00:13:03.480Z,17.36
2022-07-31T00:14:05.790Z,17.37
2022-07-31T00:15:12.601Z,17.35
2022-07-31T00:16:14.823Z,17.35
2022-07-31T00:17:20.602Z,17.34
2022-07-31T00:18:22.755Z,17.33
2022-07-31T00:19:25.959Z,17.31
2022-07-31T00:20:28.141Z,17.31
2022-07-31T00:21:31.446Z,17.29
2022-07-31T00:22:33.744Z,17.29
2022-07-31T00:23:36.970Z,17.29
2022-07-31T00:24:39.235Z,17.28
2022-07-31T00:25:42.427Z,17.27
2022-07-31T00:26:44.676Z,17.26
2022-07-31T00:27:47.899Z,17.27
2022-07-31T00:28:50.263Z,17.25
2022-07-31T00:29:53.433Z,17.25
2022-07-31T00:30:57.207Z,17.25
2022-07-31T00:32:00.348Z,17.27
2022-07-31T00:33:02.448Z,17.25
2022-07-31T00:34:05.719Z,17.26
2022-07-31T00:35:08.835Z,17.26
2022-07-31T00:36:12.528Z,17.25
2022-07-31T00:37:14.803Z,17.25
2022-07-31T00:38:27.312Z,17.24
2022-07-31T00:39:31.108Z,17.23
2022-07-31T00:40:34.365Z,17.21
2022-07-31T00:41:39.903Z,17.20
2022-07-31T00:42:43.635Z,17.19
2022-07-31T00:43:45.755Z,17.19
2022-07-31T00:44:49.027Z,17.16
2022-07-31T00:45:58.721Z,17.16
2022-07-31T00:47:04.029Z,17.15
2022-07-31T00:48:06.929Z,17.14
2022-07-31T00:49:10.758Z,17.13
2022-07-31T00:50:13.294Z,17.13
2022-07-31T00:51:18.238Z,17.14
2022-07-31T00:52:20.854Z,17.13
2022-07-31T00:53:23.994Z,17.13
2022-07-31T00:54:26.263Z,17.09
2022-07-31T00:55:29.455Z,17.11
2022-07-31T00:56:31.587Z,17.10
2022-07-31T00:57:34.888Z,17.10
2022-07-31T00:58:37.114Z,17.10
2022-07-31T00:59:40.252Z,17.10
2022-07-31T01:00:43.611Z,17.09
2022-07-31T01:01:45.837Z,17.10
2022-07-31T01:02:50.426Z,17.09
2022-07-31T01:03:53.572Z,17.08
2022-07-31T01:04:56.768Z,17.08
2022-07-31T01:05:59.929Z,17.08
2022-07-31T01:07:02.596Z,17.09
2022-07-31T01:08:06.560Z,17.08
2022-07-31T01:09:08.946Z,17.08
2022-07-31T01:10:15.421Z,17.07
2022-07-31T01:11:22.408Z,17.06
2022-07-31T01:12:30.906Z,17.07
2022-07-31T01:13:39.510Z,17.07
2022-07-31T01:14:47.350Z,17.07
2022-07-31T01:15:50.632Z,17.06
2022-07-31T01:16:57.924Z,17.06
2022-07-31T01:18:01.676Z,17.06
2022-07-31T01:19:13.117Z,17.05
2022-07-31T01:20:16.037Z,17.05
2022-07-31T01:21:24.265Z,17.03
2022-07-31T01:22:42.711Z,17.03
2022-07-31T01:24:31.075Z,17.03
2022-07-31T01:26:03.401Z,17.00
2022-07-31T01:27:27.349Z,17.00
2022-07-31T01:28:52.538Z,16.98
2022-07-31T01:30:00.141Z,16.97
2022-07-31T01:32:38.435Z,16.93
2022-07-31T01:33:47.881Z,16.93
2022-07-31T01:34:55.771Z,16.91
2022-07-31T01:36:03.479Z,16.90
2022-07-31T01:37:13.685Z,16.89
2022-07-31T01:38:22.273Z,16.89
2022-07-31T01:39:27.373Z,16.87
2022-07-31T01:40:43.150Z,16.85
2022-07-31T01:41:47.623Z,16.83
2022-07-31T01:42:55.162Z,16.83
2022-07-31T01:43:59.048Z,16.81
2022-07-31T01:45:05.657Z,16.80
2022-07-31T01:46:12.033Z,16.80
2022-07-31T01:47:18.023Z,16.78
2022-07-31T01:48:20.999Z,16.77
2022-07-31T01:49:24.782Z,16.76
2022-07-31T01:50:43.047Z,16.76
2022-07-31T01:51:49.387Z,16.74
2022-07-31T01:52:53.292Z,16.74
2022-07-31T01:53:57.369Z,16.72
2022-07-31T01:55:00.936Z,16.73
2022-07-31T01:56:05.131Z,16.71
2022-07-31T01:57:13.124Z,16.70
2022-07-31T01:58:21.187Z,16.69
2022-07-31T01:59:25.985Z,16.68
2022-07-31T02:01:08.883Z,16.65
2022-07-31T02:02:15.421Z,16.64
2022-07-31T02:03:43.765Z,16.62
2022-07-31T02:04:47.146Z,16.61
2022-07-31T02:05:52.015Z,16.60
2022-07-31T02:06:57.156Z,16.58
2022-07-31T02:07:59.949Z,16.57
2022-07-31T02:09:04.211Z,16.58
2022-07-31T02:10:10.072Z,16.55
2022-07-31T02:11:14.425Z,16.56
2022-07-31T02:12:18.070Z,16.54
2022-07-31T02:13:38.284Z,16.52
2022-07-31T02:14:43.108Z,16.51
2022-07-31T02:15:47.157Z,16.49
2022-07-31T02:16:55.023Z,16.48
2022-07-31T02:18:12.237Z,16.46
2022-07-31T02:19:57.771Z,16.43
2022-07-31T02:21:02.662Z,16.41
2022-07-31T02:22:06.747Z,16.40
2022-07-31T02:23:09.385Z,16.38
2022-07-31T02:24:12.615Z,16.36
2022-07-31T02:25:14.930Z,16.34
2022-07-31T02:26:18.378Z,16.32
2022-07-31T02:27:58.173Z,16.33
2022-07-31T02:28:45.801Z,16.30
2022-07-31T02:29:48.676Z,16.30
2022-07-31T02:30:53.156Z,16.27
2022-07-31T02:32:09.733Z,16.27
2022-07-31T02:33:15.486Z,16.24
2022-07-31T02:34:20.117Z,16.22
2022-07-31T02:35:32.014Z,16.21
2022-07-31T02:36:35.696Z,16.19
2022-07-31T02:37:40.513Z,16.17
2022-07-31T02:38:43.777Z,16.15
2022-07-31T02:39:47.771Z,16.12
2022-07-31T02:40:51.301Z,16.09
2022-07-31T02:41:57.750Z,16.08
2022-07-31T02:43:00.408Z,16.05
2022-07-31T02:44:04.518Z,16.03
2022-07-31T02:45:09.226Z,16.01
2022-07-31T02:46:13.914Z,16.00
2022-07-31T02:47:17.616Z,15.98
2022-07-31T02:48:21.404Z,15.96
2022-07-31T02:49:25.778Z,15.94
2022-07-31T02:50:29.741Z,15.92
2022-07-31T02:51:38.795Z,15.91
2022-07-31T02:52:45.123Z,15.91
2022-07-31T02:53:48.572Z,15.89
2022-07-31T02:54:52.878Z,15.87
2022-07-31T02:55:57.031Z,15.87
2022-07-31T02:57:01.249Z,15.85
2022-07-31T02:58:03.730Z,15.84
2022-07-31T02:59:07.152Z,15.83
2022-07-31T03:00:27.206Z,15.83
2022-07-31T03:01:35.490Z,15.81
2022-07-31T03:02:39.351Z,15.80
2022-07-31T03:03:43.054Z,15.79
2022-07-31T03:04:46.278Z,15.77
2022-07-31T03:05:49.591Z,15.77
2022-07-31T03:06:51.739Z,15.75
2022-07-31T03:07:54.948Z,15.73
2022-07-31T03:08:58.321Z,15.72
2022-07-31T03:10:00.760Z,15.71
2022-07-31T03:11:19.305Z,15.69
2022-07-31T03:12:22.534Z,15.65
2022-07-31T03:13:28.555Z,15.66
2022-07-31T03:14:33.092Z,15.66
2022-07-31T03:15:39.120Z,15.63
2022-07-31T03:16:43.311Z,15.62
2022-07-31T03:17:49.319Z,15.62
2022-07-31T03:18:58.998Z,15.60
2022-07-31T03:20:01.226Z,15.59
2022-07-31T03:21:05.567Z,15.58
2022-07-31T03:22:13.582Z,15.57
2022-07-31T03:23:20.607Z,15.55
2022-07-31T03:24:28.723Z,15.53
2022-07-31T03:25:34.187Z,15.52
2022-07-31T03:26:37.880Z,15.52
2022-07-31T03:27:40.088Z,15.52
2022-07-31T03:28:43.713Z,15.52
2022-07-31T03:29:46.028Z,15.52
2022-07-31T03:30:55.094Z,15.52
2022-07-31T03:32:02.106Z,15.52
2022-07-31T03:33:06.760Z,15.52
2022-07-31T03:34:13.894Z,15.51
2022-07-31T03:35:16.751Z,15.43
2022-07-31T03:36:19.864Z,15.52
2022-07-31T03:37:23.258Z,15.52
2022-07-31T03:38:39.144Z,15.51
2022-07-31T03:39:46.767Z,15.51
2022-07-31T03:40:49.043Z,15.50
2022-07-31T03:41:53.312Z,15.48
2022-07-31T03:42:56.518Z,15.47
2022-07-31T03:44:00.130Z,15.48
2022-07-31T03:45:03.702Z,15.46
2022-07-31T03:46:07.528Z,15.44
2022-07-31T03:47:09.980Z,15.44
2022-07-31T03:48:15.701Z,15.43
2022-07-31T03:49:18.452Z,15.43
2022-07-31T03:50:22.539Z,15.41
2022-07-31T03:51:24.975Z,15.41
2022-07-31T03:52:28.895Z,15.40
2022-07-31T03:53:31.834Z,15.40
2022-07-31T03:54:35.212Z,15.39
2022-07-31T03:55:50.667Z,15.38
2022-07-31T03:56:55.090Z,15.35
2022-07-31T03:58:00.094Z,15.36
2022-07-31T03:59:03.478Z,15.36
2022-07-31T04:00:16.578Z,15.34
2022-07-31T04:01:21.974Z,15.35
2022-07-31T04:02:26.968Z,15.35
2022-07-31T04:03:39.778Z,15.36
2022-07-31T04:05:09.929Z,15.35
2022-07-31T04:06:14.048Z,15.36
2022-07-31T04:07:17.306Z,15.37
2022-07-31T04:08:20.531Z,15.36
2022-07-31T04:09:22.814Z,15.37
2022-07-31T04:10:26.949Z,15.37
2022-07-31T04:11:30.103Z,15.36
2022-07-31T04:12:33.402Z,15.36
2022-07-31T04:13:37.087Z,15.36
2022-07-31T04:14:40.348Z,15.36
2022-07-31T04:15:42.868Z,15.35
2022-07-31T04:16:46.321Z,15.36
2022-07-31T04:17:50.205Z,15.35
2022-07-31T04:18:59.132Z,15.36
2022-07-31T04:20:02.432Z,15.35
2022-07-31T04:21:08.472Z,15.36
2022-07-31T04:22:11.702Z,15.36
2022-07-31T04:23:14.194Z,15.36
2022-07-31T04:24:55.603Z,15.37
2022-07-31T04:26:25.973Z,15.36
2022-07-31T04:27:45.647Z,15.38
2022-07-31T04:28:51.775Z,15.39
2022-07-31T04:29:53.972Z,15.39
2022-07-31T04:30:57.114Z,15.41
2022-07-31T04:31:59.330Z,15.41
2022-07-31T04:33:09.302Z,15.45
2022-07-31T04:34:13.185Z,15.46
2022-07-31T04:35:16.347Z,15.49
2022-07-31T04:36:30.635Z,15.52
2022-07-31T04:37:35.945Z,15.56
2022-07-31T04:38:38.150Z,15.61
2022-07-31T04:39:41.392Z,15.65
2022-07-31T04:40:43.705Z,15.69
2022-07-31T04:41:47.050Z,15.73
2022-07-31T04:42:50.216Z,15.78
2022-07-31T04:43:52.461Z,15.82
2022-07-31T04:44:55.633Z,15.86
2022-07-31T04:45:58.978Z,15.89
2022-07-31T04:47:01.251Z,15.93
2022-07-31T04:48:07.049Z,15.96
2022-07-31T04:49:11.636Z,15.99
2022-07-31T04:50:16.497Z,16.03
2022-07-31T04:51:30.617Z,16.05
2022-07-31T04:52:35.085Z,16.07
2022-07-31T04:53:43.153Z,16.09
2022-07-31T04:54:46.420Z,16.13
2022-07-31T04:56:04.905Z,16.15
2022-07-31T04:57:08.183Z,16.18
2022-07-31T04:58:10.652Z,16.22
2022-07-31T04:59:15.112Z,16.25
2022-07-31T05:00:20.347Z,16.27
2022-07-31T05:01:23.690Z,16.33
2022-07-31T05:02:26.278Z,16.34
2022-07-31T05:03:29.601Z,16.36
2022-07-31T05:04:31.762Z,16.38
2022-07-31T05:05:36.615Z,16.41
2022-07-31T05:06:41.990Z,16.42
2022-07-31T05:07:45.327Z,16.43
2022-07-31T05:08:51.629Z,16.43
2022-07-31T05:09:54.946Z,16.43
2022-07-31T05:11:15.568Z,16.44
2022-07-31T05:12:19.178Z,16.40
2022-07-31T05:13:22.573Z,16.43
2022-07-31T05:14:27.210Z,16.44
2022-07-31T05:15:29.572Z,16.43
2022-07-31T05:16:33.802Z,16.42
2022-07-31T05:17:36.949Z,16.42
2022-07-31T05:18:58.281Z,16.41
2022-07-31T05:20:19.736Z,16.40
2022-07-31T05:21:54.092Z,16.39
2022-07-31T05:23:16.185Z,16.40
2022-07-31T05:24:54.658Z,16.40
2022-07-31T05:25:57.868Z,16.40
2022-07-31T05:27:01.033Z,16.42
2022-07-31T05:28:03.317Z,16.42
2022-07-31T05:29:12.128Z,16.43
2022-07-31T05:30:14.428Z,16.47
2022-07-31T05:31:18.703Z,16.50
2022-07-31T05:32:21.895Z,16.56
2022-07-31T05:33:24.076Z,16.62
2022-07-31T05:34:27.537Z,16.68
2022-07-31T05:35:32.445Z,16.75
2022-07-31T05:36:35.797Z,16.81
2022-07-31T05:37:39.305Z,16.89
2022-07-31T05:38:45.537Z,16.98
2022-07-31T05:40:17.880Z,17.08
2022-07-31T05:41:53.050Z,17.21
2022-07-31T05:43:11.005Z,17.32
2022-07-31T05:44:28.903Z,17.41
2022-07-31T05:45:31.087Z,17.47
2022-07-31T05:46:34.354Z,17.55
2022-07-31T05:47:39.849Z,17.63
2022-07-31T05:48:44.975Z,17.68
2022-07-31T05:49:47.179Z,17.73
2022-07-31T05:50:51.754Z,17.78
2022-07-31T05:51:54.611Z,17.83
2022-07-31T05:52:59.186Z,17.85
2022-07-31T05:54:31.259Z,17.91
2022-07-31T05:56:12.609Z,17.93
2022-07-31T05:57:33.974Z,17.93
2022-07-31T05:58:38.166Z,17.94
2022-07-31T05:59:40.311Z,17.95
2022-07-31T06:00:44.759Z,17.97
2022-07-31T06:01:46.947Z,17.99
2022-07-31T06:02:50.201Z,18.02
2022-07-31T06:04:16.731Z,18.06
2022-07-31T06:05:21.503Z,18.11
2022-07-31T06:06:24.674Z,18.15
2022-07-31T06:07:26.919Z,18.17
2022-07-31T06:08:31.936Z,18.22
2022-07-31T06:09:35.124Z,18.26
2022-07-31T06:10:37.789Z,18.30
2022-07-31T06:11:41.698Z,18.34
2022-07-31T06:12:43.864Z,18.38
2022-07-31T06:13:47.289Z,18.43
2022-07-31T06:15:02.016Z,18.51
2022-07-31T06:16:14.789Z,18.56
2022-07-31T06:17:17.272Z,18.64
2022-07-31T06:18:20.594Z,18.69
2022-07-31T06:19:24.661Z,18.72
2022-07-31T06:20:29.597Z,18.77
2022-07-31T06:21:32.746Z,18.81
2022-07-31T06:22:34.929Z,18.84
2022-07-31T06:23:39.577Z,18.86
2022-07-31T06:24:53.290Z,18.91
2022-07-31T06:25:57.910Z,18.93
2022-07-31T06:27:01.576Z,18.96
2022-07-31T06:28:10.503Z,19.00
2022-07-31T06:29:13.257Z,19.04
2022-07-31T06:30:16.729Z,19.04
2022-07-31T06:31:20.725Z,19.11
2022-07-31T06:32:23.409Z,19.15
2022-07-31T06:33:37.039Z,19.18
2022-07-31T06:34:40.466Z,19.20
2022-07-31T06:35:43.681Z,19.22
2022-07-31T06:37:06.100Z,19.24
2022-07-31T06:38:09.303Z,19.26
2022-07-31T06:39:54.378Z,19.30
2022-07-31T06:41:35.629Z,19.33
2022-07-31T06:42:58.829Z,19.35
2022-07-31T06:44:23.749Z,19.40
2022-07-31T06:46:05.457Z,19.44
2022-07-31T06:47:26.339Z,19.46
2022-07-31T06:48:52.179Z,19.50
2022-07-31T06:49:57.206Z,19.52
2022-07-31T06:52:28.293Z,19.60
2022-07-31T06:53:30.970Z,19.64
2022-07-31T06:54:35.645Z,19.68
2022-07-31T06:55:38.114Z,19.71
2022-07-31T06:56:47.838Z,19.77
2022-07-31T06:57:51.002Z,19.83
2022-07-31T06:58:53.485Z,19.89
2022-07-31T06:59:56.628Z,19.96
2022-07-31T07:01:00.201Z,20.05
2022-07-31T07:02:02.699Z,20.11
2022-07-31T07:03:07.360Z,20.19
2022-07-31T07:04:09.758Z,20.23
2022-07-31T07:05:13.070Z,20.26
2022-07-31T07:06:15.655Z,20.28
2022-07-31T07:07:19.245Z,20.32
2022-07-31T07:08:25.207Z,20.35
2022-07-31T07:09:27.397Z,20.37
2022-07-31T07:10:31.967Z,20.40
2022-07-31T07:11:34.152Z,20.43
2022-07-31T07:12:37.320Z,20.46
2022-07-31T07:13:45.847Z,20.49
2022-07-31T07:14:51.381Z,20.52
2022-07-31T07:15:54.518Z,20.53
2022-07-31T07:17:03.785Z,20.58
2022-07-31T07:18:08.070Z,20.61
2022-07-31T07:19:31.498Z,20.65
2022-07-31T07:20:34.481Z,20.68
2022-07-31T07:21:37.629Z,20.72
2022-07-31T07:22:39.757Z,20.78
2022-07-31T07:23:43.281Z,20.81
2022-07-31T07:25:01.609Z,20.86
2022-07-31T07:26:05.925Z,20.89
2022-07-31T07:27:09.104Z,20.94
2022-07-31T07:28:15.207Z,20.98
2022-07-31T07:29:34.724Z,21.00
2022-07-31T07:30:37.208Z,21.01
2022-07-31T07:31:41.050Z,21.01
2022-07-31T07:32:43.174Z,21.02
2022-07-31T07:33:47.899Z,21.02
2022-07-31T07:34:59.605Z,21.05
2022-07-31T07:36:29.860Z,21.07
2022-07-31T07:37:39.011Z,21.09
2022-07-31T07:38:41.538Z,21.11
2022-07-31T07:39:45.154Z,21.13
2022-07-31T07:40:47.538Z,21.16
2022-07-31T07:41:53.136Z,21.17
2022-07-31T07:42:59.927Z,21.18
2022-07-31T07:44:07.522Z,21.21
2022-07-31T07:45:10.930Z,21.23
2022-07-31T07:46:14.335Z,21.24
2022-07-31T07:47:21.953Z,21.25
2022-07-31T07:48:24.162Z,21.26
2022-07-31T07:49:47.594Z,21.27
2022-07-31T07:50:58.530Z,21.27
2022-07-31T07:52:06.734Z,21.28
2022-07-31T07:53:14.499Z,21.29
2022-07-31T07:54:44.002Z,21.32
2022-07-31T07:56:05.024Z,21.34
2022-07-31T07:57:28.010Z,21.36
2022-07-31T07:58:49.209Z,21.39
2022-07-31T08:00:20.219Z,21.45
2022-07-31T08:01:35.139Z,21.48
2022-07-31T08:03:46.649Z,21.52
2022-07-31T08:04:16.892Z,21.56
2022-07-31T08:05:19.107Z,21.57
2022-07-31T08:06:23.307Z,21.57
2022-07-31T08:07:41.899Z,21.58
2022-07-31T08:09:05.804Z,21.57
2022-07-31T08:10:26.612Z,21.58
2022-07-31T08:11:36.759Z,21.60
2022-07-31T08:12:54.768Z,21.61
2022-07-31T08:14:20.809Z,21.63
2022-07-31T08:15:51.726Z,21.64
2022-07-31T08:17:12.811Z,21.66
2022-07-31T08:18:17.554Z,21.68
2022-07-31T08:19:21.066Z,21.71
2022-07-31T08:20:23.374Z,21.73
2022-07-31T08:21:28.154Z,21.76
2022-07-31T08:22:31.038Z,21.79
2022-07-31T08:23:34.177Z,21.81
2022-07-31T08:24:38.989Z,21.84
2022-07-31T08:25:41.205Z,21.87
2022-07-31T08:26:58.586Z,21.90
2022-07-31T08:28:04.243Z,21.93
2022-07-31T08:29:08.262Z,21.95
2022-07-31T08:30:12.606Z,21.96
2022-07-31T08:31:15.459Z,21.99
2022-07-31T08:32:32.422Z,22.03
2022-07-31T08:33:42.171Z,22.06
2022-07-31T08:34:44.385Z,22.10
2022-07-31T08:35:50.204Z,22.11
2022-07-31T08:36:53.607Z,22.13
2022-07-31T08:38:03.140Z,22.12
2022-07-31T08:39:17.625Z,22.11
2022-07-31T08:40:43.272Z,22.11
2022-07-31T08:41:49.208Z,22.11
2022-07-31T08:42:52.606Z,22.13
2022-07-31T08:44:01.725Z,22.12
2022-07-31T08:45:08.139Z,22.13
2022-07-31T08:46:15.165Z,22.13
2022-07-31T08:47:21.995Z,22.11
2022-07-31T08:48:29.023Z,22.10
2022-07-31T08:49:37.134Z,22.09
2022-07-31T08:50:41.366Z,22.08
2022-07-31T08:51:54.169Z,22.06
2022-07-31T08:53:23.596Z,22.02
2022-07-31T08:54:35.517Z,22.00
2022-07-31T08:55:56.121Z,21.95
2022-07-31T08:57:00.184Z,21.92
2022-07-31T08:58:03.504Z,21.87
2022-07-31T08:59:10.038Z,21.84
2022-07-31T09:00:19.808Z,21.80
2022-07-31T09:01:22.261Z,21.77
2022-07-31T09:02:28.708Z,21.73
2022-07-31T09:03:58.073Z,21.67
2022-07-31T09:05:02.870Z,21.61
2022-07-31T09:06:06.930Z,21.58
2022-07-31T09:07:16.016Z,21.54
2022-07-31T09:08:23.750Z,21.53
2022-07-31T09:09:45.219Z,21.51
2022-07-31T09:11:03.348Z,21.48
2022-07-31T09:12:13.632Z,21.48
2022-07-31T09:13:40.398Z,21.48
2022-07-31T09:15:07.877Z,21.51
2022-07-31T09:16:12.106Z,21.53
2022-07-31T09:17:15.933Z,21.55
2022-07-31T09:18:24.766Z,21.58
2022-07-31T09:19:53.049Z,21.63
2022-07-31T09:21:03.266Z,21.66
2022-07-31T09:22:10.292Z,21.71
2022-07-31T09:23:14.417Z,21.73
2022-07-31T09:24:28.359Z,21.75
2022-07-31T09:25:31.740Z,21.79
2022-07-31T09:26:34.950Z,21.82
2022-07-31T09:27:38.264Z,21.89
2022-07-31T09:28:43.593Z,21.94
2022-07-31T09:29:49.276Z,21.96
2022-07-31T09:31:33.539Z,22.11
2022-07-31T09:32:54.091Z,22.14
2022-07-31T09:34:28.811Z,22.19
2022-07-31T09:35:54.038Z,22.23
2022-07-31T09:36:56.248Z,22.27
2022-07-31T09:38:36.219Z,22.34
2022-07-31T09:40:14.873Z,22.43
2022-07-31T09:41:57.973Z,22.52
2022-07-31T09:43:25.875Z,22.60
2022-07-31T09:44:39.089Z,22.66
2022-07-31T09:45:48.490Z,22.72
2022-07-31T09:46:52.518Z,22.77
2022-07-31T09:48:06.985Z,22.83
2022-07-31T09:49:09.854Z,22.89
2022-07-31T09:50:15.888Z,22.93
2022-07-31T09:51:18.861Z,22.97
2022-07-31T09:52:23.443Z,23.01
2022-07-31T09:53:27.518Z,23.06
2022-07-31T09:54:44.232Z,23.10
2022-07-31T09:56:07.500Z,23.14
2022-07-31T09:57:14.017Z,23.17
2022-07-31T09:58:21.124Z,23.21
2022-07-31T09:59:24.140Z,23.27
2022-07-31T10:00:28.550Z,23.32
2022-07-31T10:01:33.942Z,23.39
2022-07-31T10:02:40.530Z,23.46
2022-07-31T10:03:42.910Z,23.52
2022-07-31T10:04:47.746Z,23.56
2022-07-31T10:05:51.857Z,23.62
2022-07-31T10:06:57.734Z,23.65
2022-07-31T10:08:01.759Z,23.68
2022-07-31T10:09:33.663Z,23.69
2022-07-31T10:10:44.427Z,23.71
2022-07-31T10:12:16.034Z,23.75
2022-07-31T10:13:22.711Z,23.77
2022-07-31T10:14:28.943Z,23.79
2022-07-31T10:15:34.333Z,23.82
2022-07-31T10:17:00.205Z,23.85
2022-07-31T10:18:35.638Z,23.89
2022-07-31T10:20:10.634Z,23.97
2022-07-31T10:21:44.096Z,24.02
2022-07-31T10:22:58.678Z,24.10
2022-07-31T10:24:11.346Z,24.17
2022-07-31T10:25:21.280Z,24.23
2022-07-31T10:26:39.189Z,24.28
2022-07-31T10:27:48.723Z,24.32
2022-07-31T10:28:52.389Z,24.36
2022-07-31T10:29:56.628Z,24.37
2022-07-31T10:31:01.280Z,24.40
2022-07-31T10:32:06.491Z,24.42
2022-07-31T10:33:40.735Z,24.48
2022-07-31T10:34:56.510Z,24.55
2022-07-31T10:36:30.480Z,24.66
2022-07-31T10:37:59.895Z,24.77
2022-07-31T10:39:29.389Z,24.87
2022-07-31T10:41:03.943Z,25.02
2022-07-31T10:42:13.402Z,25.13
2022-07-31T10:43:21.683Z,25.26
2022-07-31T10:44:48.320Z,25.43
2022-07-31T10:46:02.636Z,25.56
2022-07-31T10:47:20.474Z,25.67
2022-07-31T10:48:54.076Z,25.79
2022-07-31T10:50:31.481Z,25.90
2022-07-31T10:51:57.558Z,25.99
2022-07-31T10:53:20.045Z,26.07
2022-07-31T10:54:45.774Z,26.15
2022-07-31T10:56:11.486Z,26.22
2022-07-31T10:57:56.950Z,26.27
2022-07-31T10:59:33.088Z,26.34
2022-07-31T11:01:06.240Z,26.37
2022-07-31T11:02:30.733Z,26.38
2022-07-31T11:03:55.493Z,26.39
2022-07-31T11:05:24.908Z,26.41
2022-07-31T11:06:59.202Z,26.42
2022-07-31T11:08:25.418Z,26.46
2022-07-31T11:09:50.315Z,26.46
2022-07-31T11:11:32.989Z,26.41
2022-07-31T11:13:01.099Z,26.34
2022-07-31T11:14:33.081Z,26.28
2022-07-31T11:16:05.379Z,26.24
2022-07-31T11:18:21.999Z,26.21
2022-07-31T11:19:15.788Z,26.21
2022-07-31T11:20:20.226Z,26.21
2022-07-31T11:21:39.997Z,26.22
2022-07-31T11:22:52.204Z,26.23
2022-07-31T11:24:03.072Z,26.21
2022-07-31T11:25:09.077Z,26.20
2022-07-31T11:26:13.568Z,26.19
2022-07-31T11:27:15.705Z,26.19
2022-07-31T11:28:23.734Z,26.20
2022-07-31T11:30:00.202Z,26.23
2022-07-31T11:30:53.062Z,26.24
2022-07-31T11:32:03.852Z,26.29
2022-07-31T11:33:08.185Z,26.32
2022-07-31T11:34:13.138Z,26.34
2022-07-31T11:35:29.319Z,26.34
2022-07-31T11:36:33.334Z,26.37
2022-07-31T11:37:46.513Z,26.39
2022-07-31T11:39:01.781Z,26.39
2022-07-31T11:40:13.496Z,26.37
2022-07-31T11:41:22.825Z,26.40
2022-07-31T11:42:33.204Z,26.44
2022-07-31T11:43:47.039Z,26.48
2022-07-31T11:44:53.864Z,26.55
2022-07-31T11:45:58.315Z,26.61
2022-07-31T11:47:03.698Z,26.65
2022-07-31T11:48:35.988Z,26.69
2022-07-31T11:49:48.720Z,26.70
2022-07-31T11:50:52.839Z,26.74
2022-07-31T11:52:00.678Z,26.74
2022-07-31T11:53:07.003Z,26.75
2022-07-31T11:54:12.012Z,26.76
2022-07-31T11:55:17.226Z,26.75
2022-07-31T11:56:21.758Z,26.77
2022-07-31T11:57:52.274Z,26.77
2022-07-31T11:58:56.785Z,26.72
2022-07-31T11:59:59.493Z,26.70
2022-07-31T12:01:06.456Z,26.68
2022-07-31T12:02:10.896Z,26.65
2022-07-31T12:03:16.077Z,26.62
2022-07-31T12:04:22.406Z,26.60
2022-07-31T12:05:37.815Z,26.59
2022-07-31T12:06:44.157Z,26.57
2022-07-31T12:07:48.049Z,26.54
2022-07-31T12:08:52.065Z,26.53
2022-07-31T12:10:00.449Z,26.53
2022-07-31T12:11:11.351Z,26.54
2022-07-31T12:12:19.292Z,26.55
2022-07-31T12:13:26.612Z,26.57
2022-07-31T12:14:30.454Z,26.61
2022-07-31T12:15:36.159Z,26.63
2022-07-31T12:16:42.222Z,26.63
2022-07-31T12:17:44.851Z,26.66
2022-07-31T12:18:50.478Z,26.67
2022-07-31T12:19:58.626Z,26.69
2022-07-31T12:21:03.811Z,26.73
2022-07-31T12:22:14.095Z,26.76
2022-07-31T12:23:40.878Z,26.79
2022-07-31T12:24:40.669Z,26.79
2022-07-31T12:25:45.920Z,26.78
2022-07-31T12:26:52.134Z,26.79
2022-07-31T12:27:55.408Z,26.79
2022-07-31T12:29:01.581Z,26.79
2022-07-31T12:30:13.950Z,26.79
2022-07-31T12:31:17.199Z,26.78
2022-07-31T12:32:26.027Z,26.77
2022-07-31T12:33:29.347Z,26.76
2022-07-31T12:34:38.234Z,26.75
2022-07-31T12:35:55.655Z,26.73
2022-07-31T12:37:04.310Z,26.72
2022-07-31T12:38:36.820Z,26.69
2022-07-31T12:39:53.769Z,26.67
2022-07-31T12:41:07.953Z,26.63
2022-07-31T12:42:21.925Z,26.61
2022-07-31T12:43:34.156Z,26.59
2022-07-31T12:44:36.314Z,26.57
2022-07-31T12:45:40.032Z,26.54
2022-07-31T12:46:42.307Z,26.51
2022-07-31T12:47:45.740Z,26.48
2022-07-31T12:48:55.505Z,26.45
2022-07-31T12:49:59.523Z,26.41
2022-07-31T12:51:01.736Z,26.37
2022-07-31T12:52:05.316Z,26.34
2022-07-31T12:53:07.452Z,26.30
2022-07-31T12:54:11.892Z,26.28
2022-07-31T12:55:17.246Z,26.23
2022-07-31T12:56:23.640Z,26.20
2022-07-31T12:57:26.570Z,26.17
2022-07-31T12:58:30.863Z,26.13
2022-07-31T12:59:33.081Z,26.12
2022-07-31T13:00:39.955Z,26.09
2022-07-31T13:01:43.547Z,26.07
2022-07-31T13:02:46.094Z,26.05
2022-07-31T13:03:51.106Z,26.02
2022-07-31T13:04:53.287Z,26.01
2022-07-31T13:05:57.444Z,25.98
2022-07-31T13:07:00.393Z,25.96
2022-07-31T13:08:03.629Z,25.93
2022-07-31T13:09:07.350Z,25.90
2022-07-31T13:10:20.449Z,25.88
2022-07-31T13:11:30.517Z,25.84
2022-07-31T13:12:51.488Z,25.83
2022-07-31T13:13:56.884Z,25.80
2022-07-31T13:15:01.616Z,25.78
2022-07-31T13:16:03.960Z,25.75
2022-07-31T13:17:07.929Z,25.69
2022-07-31T13:18:11.362Z,25.66
2022-07-31T13:19:13.910Z,25.63
2022-07-31T13:20:17.234Z,25.58
2022-07-31T13:21:19.405Z,25.53
2022-07-31T13:22:22.646Z,25.49
2022-07-31T13:23:24.857Z,25.45
2022-07-31T13:24:28.550Z,25.42
2022-07-31T13:25:30.774Z,25.39
2022-07-31T13:26:35.652Z,25.36
2022-07-31T13:27:39.505Z,25.32
2022-07-31T13:28:46.998Z,25.30
2022-07-31T13:29:50.508Z,25.26
2022-07-31T13:30:55.259Z,25.24
2022-07-31T13:31:57.691Z,25.24
2022-07-31T13:33:01.007Z,25.24
2022-07-31T13:34:03.343Z,25.24
2022-07-31T13:35:26.660Z,25.25
2022-07-31T13:36:35.807Z,25.29
2022-07-31T13:37:42.620Z,25.32
2022-07-31T13:38:44.753Z,25.36
2022-07-31T13:39:47.956Z,25.40
2022-07-31T13:41:08.649Z,25.44
2022-07-31T13:42:12.971Z,25.48
2022-07-31T13:43:17.253Z,25.52
2022-07-31T13:44:20.369Z,25.55
2022-07-31T13:45:22.518Z,25.59
2022-07-31T13:46:26.658Z,25.61
2022-07-31T13:47:50.557Z,25.65
2022-07-31T13:48:53.750Z,25.68
2022-07-31T13:50:03.387Z,25.71
2022-07-31T13:51:06.010Z,25.71
2022-07-31T13:52:09.852Z,25.74
2022-07-31T13:53:12.195Z,25.76
2022-07-31T13:54:16.705Z,25.78
2022-07-31T13:55:18.863Z,25.79
2022-07-31T13:56:42.424Z,25.80
2022-07-31T13:57:46.682Z,25.81
2022-07-31T13:58:48.789Z,25.83
2022-07-31T13:59:51.963Z,25.83
2022-07-31T14:00:54.501Z,25.83
2022-07-31T14:02:03.780Z,25.83
2022-07-31T14:03:07.573Z,25.82
2022-07-31T14:04:14.081Z,25.81
2022-07-31T14:05:26.774Z,25.79
2022-07-31T14:06:29.919Z,25.75
2022-07-31T14:07:45.229Z,25.72
2022-07-31T14:08:50.791Z,25.67
2022-07-31T14:09:55.464Z,25.63
2022-07-31T14:10:57.947Z,25.59
2022-07-31T14:12:03.677Z,25.56
2022-07-31T14:13:09.589Z,25.51
2022-07-31T14:14:11.787Z,25.48
2022-07-31T14:15:16.682Z,25.42
2022-07-31T14:16:18.910Z,25.39
2022-07-31T14:17:22.164Z,25.34
2022-07-31T14:18:24.527Z,25.30
2022-07-31T14:19:27.746Z,25.25
2022-07-31T14:20:32.539Z,25.20
2022-07-31T14:21:36.147Z,25.16
2022-07-31T14:22:38.359Z,25.13
2022-07-31T14:23:41.905Z,25.10
2022-07-31T14:24:51.333Z,25.06
2022-07-31T14:25:54.869Z,25.03
2022-07-31T14:26:58.030Z,25.00
2022-07-31T14:28:00.435Z,24.96
2022-07-31T14:29:07.150Z,24.91
2022-07-31T14:30:10.720Z,24.86
2022-07-31T14:31:15.942Z,24.82
2022-07-31T14:32:19.394Z,24.75
2022-07-31T14:33:22.721Z,24.71
2022-07-31T14:34:35.273Z,24.67
2022-07-31T14:35:38.087Z,24.62
2022-07-31T14:36:41.315Z,24.59
2022-07-31T14:37:43.627Z,24.54
2022-07-31T14:38:46.813Z,24.50
2022-07-31T14:39:48.959Z,24.47
2022-07-31T14:40:52.437Z,24.44
2022-07-31T14:41:54.841Z,24.41
2022-07-31T14:42:58.117Z,24.37
2022-07-31T14:44:00.532Z,24.33
2022-07-31T14:45:06.731Z,24.29
2022-07-31T14:46:09.916Z,24.25
2022-07-31T14:47:17.728Z,24.20
2022-07-31T14:48:23.941Z,24.13
2022-07-31T14:49:26.326Z,24.08